Flight Track Log - Related Links

Times and Time Zones

All times are in EDT time to prevent confusion due to time zone crossing. See the FLG4208 flight status page for this flight to view local times or setup timezone preferences in your user account.

Time Position Orientation Groundspeed Altitude Reporting Facility
EDT Latitude Longitude Course Direction KTS MPH feet Rate Location/Type
Fri 11:13:32 AM 42.2058 -83.3556 275° West 146 168 1,400  Level Cleveland Center
Fri 11:14:07 AM 42.2067 -83.3836 272° West 180 207 2,900 2,778 Climbing FAA TRACON SMA TRACON (SMA)
Fri 11:14:26 AM 42.2086 -83.4089 276° West 201 231 3,900 1,692 Climbing FAA TRACON SMA TRACON (SMA)
Fri 11:14:46 AM 42.2089 -83.4306 271° West 226 260 4,000 150 Climbing FAA TRACON SMA TRACON (SMA)
Fri 11:15:06 AM 42.2097 -83.4600 272° West 230 265 4,000  Level FAA TRACON SMA TRACON (SMA)
Fri 11:15:46 AM 42.2111 -83.5197 272° West 228 262 4,000  Level FAA TRACON SMA TRACON (SMA)
Fri 11:16:00 AM 42.2167 -83.6227 270° West  Level FlightAware Approximate
Fri 11:16:06 AM 42.2117 -83.5461 272° West 228 262 4,000  Level FAA TRACON SMA TRACON (SMA)
Fri 11:16:29 AM 42.2125 -83.5786 272° West 226 260 4,000  Level FAA TRACON SMA TRACON (SMA)
Fri 11:16:48 AM 42.2128 -83.6047 271° West 226 260 4,000  Level FAA TRACON SMA TRACON (SMA)
Fri 11:17:00 AM 42.2220 -83.7143 275° West  Level FlightAware Approximate
Fri 11:17:06 AM 42.2136 -83.6308 272° West 227 261 4,000  Level FAA TRACON SMA TRACON (SMA)
Fri 11:17:29 AM 42.2144 -83.6700 272° West 230 265 5,200 2,143 Climbing Cleveland Center
Fri 11:18:00 AM 42.2289 -83.8190 275° West  Level FlightAware Approximate
Fri 11:18:30 AM 42.2164 -83.7542 272° West 236 272 7,000  Level Cleveland Center
Fri 11:19:31 AM 42.2158 -83.8439 270° West 235 270 7,000 155 Level Cleveland Center
Fri 11:20:26 AM 42.2178 -83.9281 272° West 238 274 7,300 1,161 Climbing Cleveland Center
Fri 11:22:06 AM 42.2222 -84.0803 272° West 283 326 10,000 1,361 Climbing FAA TRACON SMA TRACON (SMA)
Fri 11:22:25 AM 42.2225 -84.1133 271° West 292 336 10,000  Level FAA TRACON SMA TRACON (SMA)
Fri 11:22:46 AM 42.2231 -84.1494 271° West 295 339 10,000  Level FAA TRACON SMA TRACON (SMA)
Fri 11:23:06 AM 42.2236 -84.1900 271° West 297 342 10,000  Level FAA TRACON SMA TRACON (SMA)
Fri 11:23:25 AM 42.2239 -84.2247 271° West 298 343 10,000  Level FAA TRACON SMA TRACON (SMA)
Fri 11:23:46 AM 42.2247 -84.2597 272° West 302 348 10,000  Level FAA TRACON SMA TRACON (SMA)
Fri 11:24:06 AM 42.2244 -84.3042 270° West 305 351 10,000  Level FAA TRACON SMA TRACON (SMA)
Fri 11:24:26 AM 42.2250 -84.3397 271° West 307 353 10,000  Level FAA TRACON SMA TRACON (SMA)
Fri 11:24:46 AM 42.2258 -84.3753 272° West 307 353 10,000  Level FAA TRACON SMA TRACON (SMA)
Fri 11:25:06 AM 42.2247 -84.4169 268° West 307 353 10,000  Level FAA TRACON SMA TRACON (SMA)
Fri 11:25:25 AM 42.2272 -84.4550 275° West 307 353 10,000  Level FAA TRACON SMA TRACON (SMA)
Fri 11:25:46 AM 42.2275 -84.4906 271° West 306 352 10,000  Level FAA TRACON SMA TRACON (SMA)
Fri 11:26:06 AM 42.2281 -84.5325 271° West 305 351 10,000  Level FAA TRACON SMA TRACON (SMA)
Fri 11:26:26 AM 42.2281 -84.5431 270° West 305 351 10,000  Level FAA TRACON SMA TRACON (SMA)
Fri 11:26:46 AM 42.2281 -84.5431 143° Southeast 305 351 10,000 115 Level FAA TRACON SMA TRACON (SMA)
Fri 11:27:18 AM 42.2292 -84.6583 271° West 305 351 10,100 -319 Climbing Chicago Center
Fri 11:28:20 AM 42.2303 -84.7583 271° West 276 318 9,500 -1,122 Descending Chicago Center
Fri 11:29:21 AM 42.2317 -84.8611 271° West 245 282 7,800 -1,463 Descending Chicago Center
Fri 11:30:23 AM 42.2344 -84.9372 273° West 219 252 6,500 -1,210 Descending Chicago Center
Fri 11:31:25 AM 42.2450 -85.0075 281° West 199 229 5,300 -1,306 Descending Chicago Center
Fri 11:32:27 AM 42.2567 -85.0900 281° West 206 237 3,800 -1,306 Descending Chicago Center
Fri 11:33:29 AM 42.2667 -85.1656 280° West 207 238 2,600 -581 Descending Chicago Center
Fri 11:34:31 AM 42.2747 -85.2369 279° West 198 228 2,600  Level Chicago Center
Fri 11:35:32 AM 42.2833 -85.2978 281° West 177 204 2,600  Level Chicago Center
Fri 11:36:34 AM 42.2931 -85.3589 282° West 168 193 2,600  Level Chicago Center
Fri 11:37:36 AM 42.3019 -85.4225 281° West 171 197 2,600 -194 Level Chicago Center
Fri 11:38:38 AM 42.2983 -85.4950 266° West 165 190 2,200 -387 Descending Chicago Center

Login

Don't have an account? Register now (free) for customized features, flight alerts, and more!